Flight Track Log - Related Links

Times and Time Zones

All times are in EST time to prevent confusion due to time zone crossing. See the SWA2122 flight status page for this flight to view local times or setup timezone preferences in your user account.

Time Position Orientation Groundspeed Altitude Reporting Facility
EST Latitude Longitude Course Direction KTS MPH feet Rate Location/Type
Sat 04:48:04 PM 36.1200 -115.1617 330° Northwest 191 220 4,600  Level Los Angeles Center
Sat 04:48:45 PM 36.1200 -115.2058 270° West 235 270 6,800 3,541 Climbing Los Angeles Center
Sat 04:49:05 PM 36.1125 -115.2361 253° West 254 292 8,200 2,226 Climbing Los Angeles Center
Sat 04:49:47 PM 36.0950 -115.2922 249° West 258 297 9,100 806 Climbing Los Angeles Center
Sat 04:50:12 PM 36.0683 -115.3117 211° Southwest 282 325 9,100  Level Los Angeles Center
Sat 04:50:49 PM 36.0247 -115.3300 199° South 278 320 9,100 485 Level Los Angeles Center
Sat 04:51:51 PM 35.9453 -115.3725 203° Southwest 287 330 9,900 1,742 Climbing Los Angeles Center
Sat 04:52:53 PM 35.8875 -115.4494 227° Southwest 330 380 12,700 3,048 Climbing Los Angeles Center
Sat 04:53:55 PM 35.8897 -115.5706 271° West 353 406 16,200 2,903 Climbing Los Angeles Center
Sat 04:54:57 PM 35.8911 -115.7203 271° West 408 470 18,700 2,758 Climbing Los Angeles Center
Sat 04:55:59 PM 35.8933 -115.8678 271° West 429 494 21,900 2,758 Climbing Los Angeles Center
Sat 04:57:01 PM 35.9164 -115.9931 283° West 430 495 24,400 2,855 Climbing Los Angeles Center
Sat 04:58:03 PM 35.9861 -116.1483 299° West 432 497 27,800 2,903 Climbing Los Angeles Center
Sat 04:59:05 PM 36.0428 -116.2747 299° West 425 489 30,400 2,226 Climbing Los Angeles Center
Sat 05:00:07 PM 36.0992 -116.4031 299° West 426 490 32,400 1,756 Climbing Los Angeles Center
Sat 05:01:08 PM 36.1525 -116.5256 298° West 417 480 34,000 780 Climbing Los Angeles Center
Sat 05:02:10 PM 36.2042 -116.6425 299° West 397 457 34,000  Level Los Angeles Center
Sat 05:03:12 PM 36.2578 -116.7636 299° West 401 461 34,000  Level Los Angeles Center
Sat 05:04:14 PM 36.3208 -116.9092 298° West 401 461 34,000  Level Los Angeles Center
Sat 05:05:16 PM 36.3736 -117.0283 299° West 400 460 34,000  Level Los Angeles Center
Sat 05:06:18 PM 36.4261 -117.1506 298° West 401 461 34,000  Level Los Angeles Center
Sat 05:07:20 PM 36.4794 -117.2739 298° West 404 465 34,000  Level Los Angeles Center
Sat 05:08:22 PM 36.5325 -117.3953 299° West 404 465 34,000  Level Los Angeles Center
Sat 05:09:24 PM 36.5950 -117.5442 298° West 405 466 34,000  Level Los Angeles Center
Sat 05:10:26 PM 36.6472 -117.6658 298° West 403 464 34,000  Level Los Angeles Center
Sat 05:11:28 PM 36.6989 -117.7883 298° West 402 463 34,000  Level Los Angeles Center
Sat 05:12:30 PM 36.7517 -117.9103 298° West 402 463 34,000  Level Los Angeles Center
Sat 05:13:32 PM 36.8017 -118.0311 297° West 402 463 34,000  Level Los Angeles Center
Sat 05:14:34 PM 36.8647 -118.1794 298° West 403 464 34,000  Level Los Angeles Center
Sat 05:15:36 PM 36.9178 -118.3078 297° West 411 473 34,000  Level Los Angeles Center
Sat 05:16:38 PM 36.9708 -118.4319 298° West 408 470 34,000  Level Los Angeles Center
Sat 05:17:40 PM 37.0197 -118.5553 296° West 400 460 34,000  Level Los Angeles Center
Sat 05:18:42 PM 37.0697 -118.6758 297° West 395 455 34,000  Level Los Angeles Center
Sat 05:19:44 PM 37.1211 -118.8006 297° West 397 457 34,000  Level Los Angeles Center
Sat 05:20:46 PM 37.1697 -118.9217 297° West 393 452 34,000  Level Los Angeles Center
Sat 05:21:47 PM 37.2361 -119.0750 299° West 419 482 34,000  Level Los Angeles Center
Sat 05:22:49 PM 37.2867 -119.2028 296° West 413 475 34,000  Level Los Angeles Center
Sat 05:24:02 PM 37.3458 -119.3547 296° West 407 468 34,000  Level Oakland Center
Sat 05:25:04 PM 37.3964 -119.4806 297° West 406 467 34,000  Level Oakland Center
Sat 05:26:05 PM 37.4408 -119.5944 296° West 409 471 34,000  Level Oakland Center
Sat 05:27:06 PM 37.5000 -119.7481 296° West 407 468 34,000  Level Oakland Center
Sat 05:28:07 PM 37.5508 -119.8747 297° West 406 467 34,000  Level Oakland Center
Sat 05:29:08 PM 37.6025 -119.9994 298° West 403 464 34,000  Level Oakland Center
Sat 05:30:09 PM 37.6522 -120.1258 296° West 402 463 34,000 -344 Level Oakland Center
Sat 05:31:10 PM 37.6706 -120.2631 280° West 407 468 33,300 -1,024 Descending Oakland Center
Sat 05:32:12 PM 37.6697 -120.4069 270° West 408 470 31,900 -2,439 Descending Oakland Center
Sat 05:33:13 PM 37.6683 -120.5556 269° West 416 479 28,300 -3,197 Descending Oakland Center
Sat 05:34:14 PM 37.6658 -120.7033 269° West 419 482 25,400 -2,754 Descending Oakland Center
Sat 05:35:15 PM 37.6644 -120.8431 269° West 410 472 22,700 -2,634 Descending Oakland Center
Sat 05:36:17 PM 37.6617 -120.9772 269° West 388 447 20,000 -2,695 Descending Oakland Center
Sat 05:37:13 PM 37.6667 -121.1167 273° West 372 428 17,400 -2,615 Descending Northern Cal TRACON
Sat 05:38:14 PM 37.6667 -121.2333 270° West 361 415 14,900 -2,529 Descending Northern Cal TRACON
Sat 05:39:14 PM 37.6500 -121.3667 261° West 342 394 12,300 -2,263 Descending Northern Cal TRACON
Sat 05:40:08 PM 37.6500 -121.4667 270° West 328 377 10,600 -1,250 Descending Northern Cal TRACON
Sat 05:41:14 PM 37.6500 -121.5667 270° West 276 318 9,800 -1,000 Descending Northern Cal TRACON
Sat 05:42:08 PM 37.6500 -121.6500 270° West 261 300 8,600 -1,050 Descending Northern Cal TRACON
Sat 05:43:14 PM 37.6333 -121.7500 258° West 247 284 7,700 -1,143 Descending Northern Cal TRACON
Sat 05:44:14 PM 37.6333 -121.8167 270° West 221 254 6,200 -1,461 Descending Northern Cal TRACON
Sat 05:45:09 PM 37.6333 -121.9000 270° West 223 257 4,900 -1,148 Descending Northern Cal TRACON
Sat 05:46:09 PM 37.6167 -121.9667 253° West 222 255 4,000 -700 Descending Northern Cal TRACON
Sat 05:47:09 PM 37.6167 -122.0500 270° West 210 242 3,500 -900 Descending Northern Cal TRACON
Sat 05:48:09 PM 37.6333 -122.1000 293° West 171 197 2,200 -1,050 Descending Northern Cal TRACON
Sat 05:49:09 PM 37.6500 -122.1500 293° West 142 163 1,400 -700 Descending Northern Cal TRACON
Sat 05:50:09 PM 37.6833 -122.1833 322° Northwest 123 142 800 -645 Descending Northern Cal TRACON
Sat 05:51:10 PM 37.7000 -122.2167 302° West 124 143 100 -689 Descending Northern Cal TRACON
Sat 05:53:00 PM 37.7167 -122.2167 270° West  Level FlightAware Approximate
Sat 06:00:00 PM 37.7213 -122.2212 270° West  Level Estimated

Login

Don't have an account? Register now (free) for customized features, flight alerts, and more!